createdAt,value
2022-08-01T00:00:51.206Z,19.00
2022-08-01T00:02:54.877Z,19.10
2022-08-01T00:04:58.570Z,19.00
2022-08-01T00:07:02.064Z,19.10
2022-08-01T00:09:05.534Z,19.00
2022-08-01T00:11:09.938Z,19.10
2022-08-01T00:13:13.514Z,19.10
2022-08-01T00:15:18.251Z,19.00
2022-08-01T00:17:21.940Z,19.00
2022-08-01T00:19:25.440Z,19.10
2022-08-01T00:21:29.041Z,19.00
2022-08-01T00:23:32.818Z,19.00
2022-08-01T00:25:36.477Z,19.00
2022-08-01T00:27:40.032Z,18.90
2022-08-01T00:30:11.862Z,19.00
2022-08-01T00:31:49.555Z,19.00
2022-08-01T00:33:53.165Z,19.00
2022-08-01T00:35:56.748Z,19.00
2022-08-01T00:38:00.429Z,19.00
2022-08-01T00:40:05.406Z,19.00
2022-08-01T00:42:10.209Z,19.00
2022-08-01T00:44:13.820Z,19.00
2022-08-01T00:46:17.388Z,19.00
2022-08-01T00:48:20.982Z,19.00
2022-08-01T00:50:24.993Z,18.90
2022-08-01T00:52:28.547Z,19.00
2022-08-01T00:54:32.491Z,19.00
2022-08-01T00:56:36.231Z,18.90
2022-08-01T00:58:39.965Z,18.90
2022-08-01T01:00:53.538Z,19.00
2022-08-01T01:02:49.120Z,18.90
2022-08-01T01:04:52.716Z,18.90
2022-08-01T01:07:00.838Z,18.90
2022-08-01T01:09:11.527Z,18.90
2022-08-01T01:11:20.209Z,18.90
2022-08-01T01:13:29.595Z,18.90
2022-08-01T01:15:36.969Z,18.90
2022-08-01T01:17:51.370Z,18.90
2022-08-01T01:19:51.128Z,18.90
2022-08-01T01:24:41.169Z,18.90
2022-08-01T01:26:51.271Z,18.90
2022-08-01T01:29:08.970Z,18.90
2022-08-01T01:31:15.392Z,18.90
2022-08-01T01:33:20.458Z,18.80
2022-08-01T01:35:26.871Z,18.80
2022-08-01T01:37:32.959Z,18.80
2022-08-01T01:39:39.446Z,18.80
2022-08-01T01:41:47.377Z,18.80
2022-08-01T01:43:51.926Z,18.80
2022-08-01T01:45:56.933Z,18.80
2022-08-01T01:48:02.049Z,18.80
2022-08-01T01:50:09.083Z,18.80
2022-08-01T01:52:16.256Z,18.80
2022-08-01T01:54:20.684Z,18.80
2022-08-01T01:56:25.363Z,18.80
2022-08-01T01:58:29.828Z,18.80
2022-08-01T02:02:57.350Z,18.70
2022-08-01T02:05:02.375Z,18.80
2022-08-01T02:07:09.292Z,18.80
2022-08-01T02:09:15.180Z,18.80
2022-08-01T02:11:19.215Z,18.80
2022-08-01T02:13:23.355Z,18.80
2022-08-01T02:15:28.960Z,18.70
2022-08-01T02:17:32.936Z,18.80
2022-08-01T02:19:38.644Z,18.80
2022-08-01T02:21:45.659Z,18.80
2022-08-01T02:23:50.425Z,18.70
2022-08-01T02:26:08.609Z,18.70
2022-08-01T02:28:05.316Z,18.70
2022-08-01T02:30:12.256Z,18.80
2022-08-01T02:32:19.760Z,18.70
2022-08-01T02:34:26.550Z,18.70
2022-08-01T02:36:33.508Z,18.70
2022-08-01T02:38:41.200Z,18.70
2022-08-01T02:43:06.262Z,18.70
2022-08-01T02:45:13.479Z,18.70
2022-08-01T02:47:19.697Z,18.70
2022-08-01T02:49:25.230Z,18.70
2022-08-01T02:51:31.416Z,18.70
2022-08-01T02:53:44.660Z,18.70
2022-08-01T02:55:45.593Z,18.70
2022-08-01T02:57:52.112Z,18.70
2022-08-01T02:59:58.300Z,18.70
2022-08-01T03:02:03.504Z,18.60
2022-08-01T03:04:07.985Z,18.60
2022-08-01T03:06:12.619Z,18.60
2022-08-01T03:08:18.244Z,18.50
2022-08-01T03:10:23.180Z,18.50
2022-08-01T03:12:30.320Z,18.40
2022-08-01T03:14:36.286Z,18.40
2022-08-01T03:16:41.637Z,18.20
2022-08-01T03:18:47.657Z,18.30
2022-08-01T03:20:53.255Z,18.30
2022-08-01T03:22:58.848Z,18.20
2022-08-01T03:25:03.988Z,18.30
2022-08-01T03:27:09.227Z,18.20
2022-08-01T03:29:17.206Z,18.20
2022-08-01T03:31:20.975Z,18.20
2022-08-01T03:33:24.630Z,18.20
2022-08-01T03:35:31.347Z,18.20
2022-08-01T03:37:54.327Z,18.20
2022-08-01T03:39:49.020Z,18.30
2022-08-01T03:41:57.091Z,18.30
2022-08-01T03:44:04.359Z,18.30
2022-08-01T03:46:11.089Z,18.30
2022-08-01T03:48:17.595Z,18.30
2022-08-01T03:50:24.173Z,18.20
2022-08-01T03:52:30.460Z,18.20
2022-08-01T03:56:52.468Z,18.30
2022-08-01T03:58:56.335Z,18.30
2022-08-01T04:01:00.499Z,18.30
2022-08-01T04:03:04.639Z,18.30
2022-08-01T04:05:09.610Z,18.20
2022-08-01T04:07:24.864Z,18.30
2022-08-01T04:09:28.636Z,18.30
2022-08-01T04:11:33.051Z,18.30
2022-08-01T04:13:38.280Z,18.30
2022-08-01T04:15:42.213Z,18.30
2022-08-01T04:17:45.757Z,18.30
2022-08-01T04:19:49.361Z,18.30
2022-08-01T04:21:53.185Z,18.30
2022-08-01T04:23:59.696Z,18.30
2022-08-01T04:26:05.468Z,18.30
2022-08-01T04:28:13.220Z,18.30
2022-08-01T04:30:20.318Z,18.30
2022-08-01T04:32:26.463Z,18.30
2022-08-01T04:34:32.874Z,18.30
2022-08-01T04:36:39.449Z,18.30
2022-08-01T04:38:46.497Z,18.30
2022-08-01T04:40:51.745Z,18.30
2022-08-01T04:42:55.732Z,18.30
2022-08-01T04:44:59.781Z,18.30
2022-08-01T04:47:05.529Z,18.30
2022-08-01T04:49:12.130Z,18.30
2022-08-01T04:51:16.474Z,18.30
2022-08-01T04:53:22.319Z,18.30
2022-08-01T04:55:25.940Z,18.30
2022-08-01T04:57:29.557Z,18.30
2022-08-01T04:59:40.557Z,18.20
2022-08-01T05:01:46.016Z,18.30
2022-08-01T05:03:49.637Z,18.30
2022-08-01T05:05:53.210Z,18.20
2022-08-01T05:07:56.915Z,18.30
2022-08-01T05:10:01.696Z,18.30
2022-08-01T05:12:09.591Z,18.30
2022-08-01T05:14:13.345Z,18.30
2022-08-01T05:16:17.373Z,18.30
2022-08-01T05:18:24.202Z,18.40
2022-08-01T05:20:27.593Z,18.40
2022-08-01T05:22:31.200Z,18.30
2022-08-01T05:24:36.724Z,18.40
2022-08-01T05:26:40.671Z,18.30
2022-08-01T05:28:44.261Z,18.30
2022-08-01T05:30:47.792Z,18.30
2022-08-01T05:32:51.376Z,18.40
2022-08-01T05:34:55.005Z,18.30
2022-08-01T05:36:58.572Z,18.40
2022-08-01T05:39:02.173Z,18.30
2022-08-01T05:41:06.369Z,18.30
2022-08-01T05:45:13.174Z,18.40
2022-08-01T05:47:16.799Z,18.40
2022-08-01T05:49:20.532Z,18.40
2022-08-01T05:51:24.135Z,18.40
2022-08-01T05:53:27.890Z,18.40
2022-08-01T05:55:31.545Z,18.40
2022-08-01T05:57:35.181Z,18.40
2022-08-01T05:59:40.632Z,18.40
2022-08-01T06:01:44.901Z,18.40
2022-08-01T06:03:48.452Z,18.40
2022-08-01T06:05:52.933Z,18.50
2022-08-01T06:07:56.517Z,18.40
2022-08-01T06:10:00.178Z,18.40
2022-08-01T06:12:05.137Z,18.40
2022-08-01T06:14:08.875Z,18.50
2022-08-01T06:16:12.346Z,18.50
2022-08-01T06:18:16.216Z,18.50
2022-08-01T06:20:20.429Z,18.50
2022-08-01T06:24:39.473Z,18.60
2022-08-01T06:26:43.175Z,18.60
2022-08-01T06:28:46.769Z,18.60
2022-08-01T06:30:50.470Z,18.60
2022-08-01T06:32:56.001Z,18.60
2022-08-01T06:35:00.378Z,18.60
2022-08-01T06:37:05.751Z,18.60
2022-08-01T06:39:09.561Z,18.60
2022-08-01T06:41:13.285Z,18.60
2022-08-01T06:43:17.106Z,18.60
2022-08-01T06:45:22.539Z,18.70
2022-08-01T06:47:26.182Z,18.70
2022-08-01T06:49:29.816Z,18.80
2022-08-01T06:51:33.504Z,18.80
2022-08-01T06:53:38.160Z,19.00
2022-08-01T06:55:41.631Z,19.00
2022-08-01T06:57:49.608Z,19.00
2022-08-01T06:59:54.709Z,19.10
2022-08-01T07:01:58.428Z,19.10
2022-08-01T07:04:02.919Z,19.10
2022-08-01T07:06:06.771Z,19.00
2022-08-01T07:08:10.381Z,19.10
2022-08-01T07:10:14.068Z,19.20
2022-08-01T07:12:17.631Z,19.20
2022-08-01T07:14:21.592Z,19.30
2022-08-01T07:16:25.257Z,19.50
2022-08-01T07:18:28.878Z,19.60
2022-08-01T07:20:38.000Z,19.60
2022-08-01T07:22:38.223Z,19.60
2022-08-01T07:24:45.815Z,19.50
2022-08-01T07:26:53.595Z,19.60
2022-08-01T07:28:55.560Z,19.60
2022-08-01T07:30:59.085Z,19.70
2022-08-01T07:33:03.307Z,19.70
2022-08-01T07:35:08.487Z,19.80
2022-08-01T07:37:12.140Z,19.80
2022-08-01T07:39:15.742Z,19.90
2022-08-01T07:41:19.768Z,20.00
2022-08-01T07:43:23.285Z,20.10
2022-08-01T07:45:27.659Z,20.00
2022-08-01T07:49:47.141Z,20.10
2022-08-01T07:52:03.190Z,20.00
2022-08-01T07:53:56.544Z,20.00
2022-08-01T07:56:00.393Z,19.90
2022-08-01T07:58:04.045Z,19.90
2022-08-01T08:00:09.801Z,20.00
2022-08-01T08:02:13.341Z,20.10
2022-08-01T08:04:16.972Z,20.20
2022-08-01T08:06:20.624Z,20.10
2022-08-01T08:08:24.348Z,20.10
2022-08-01T08:10:28.094Z,20.30
2022-08-01T08:12:31.675Z,20.30
2022-08-01T08:14:35.247Z,20.20
2022-08-01T08:16:38.864Z,20.20
2022-08-01T08:18:43.478Z,20.20
2022-08-01T08:20:47.012Z,20.20
2022-08-01T08:22:52.393Z,20.20
2022-08-01T08:24:55.964Z,20.30
2022-08-01T08:27:02.085Z,20.20
2022-08-01T08:29:05.534Z,20.20
2022-08-01T08:31:24.885Z,20.30
2022-08-01T08:33:14.920Z,20.20
2022-08-01T08:35:40.108Z,20.30
2022-08-01T08:37:23.813Z,20.30
2022-08-01T08:39:29.602Z,20.40
2022-08-01T08:41:37.809Z,20.40
2022-08-01T08:43:39.274Z,20.40
2022-08-01T08:45:56.234Z,20.50
2022-08-01T08:47:50.905Z,20.50
2022-08-01T08:49:56.807Z,20.40
2022-08-01T08:52:01.529Z,20.40
2022-08-01T08:54:06.578Z,20.40
2022-08-01T08:56:11.144Z,20.50
2022-08-01T08:58:16.968Z,20.50
2022-08-01T09:02:43.014Z,20.90
2022-08-01T09:04:49.002Z,21.00
2022-08-01T09:06:52.883Z,20.90
2022-08-01T09:08:56.534Z,20.90
2022-08-01T09:11:00.116Z,21.00
2022-08-01T09:13:11.159Z,21.00
2022-08-01T09:15:14.821Z,21.20
2022-08-01T09:17:18.412Z,21.20
2022-08-01T09:19:39.898Z,21.30
2022-08-01T09:21:27.807Z,21.50
2022-08-01T09:23:36.649Z,21.60
2022-08-01T09:25:53.281Z,21.70
2022-08-01T09:28:06.519Z,21.80
2022-08-01T09:30:12.578Z,21.90
2022-08-01T09:32:16.629Z,22.00
2022-08-01T09:34:27.396Z,22.20
2022-08-01T09:36:45.036Z,22.40
2022-08-01T09:38:50.899Z,22.40
2022-08-01T09:40:58.266Z,22.30
2022-08-01T09:43:14.888Z,22.30
2022-08-01T09:45:41.023Z,22.30
2022-08-01T09:47:41.243Z,22.30
2022-08-01T09:52:12.293Z,22.60
2022-08-01T09:54:19.521Z,22.50
2022-08-01T09:56:24.378Z,22.50
2022-08-01T09:58:28.407Z,22.30
2022-08-01T10:00:44.859Z,22.50
2022-08-01T10:02:41.166Z,22.60
2022-08-01T10:04:51.185Z,22.70
2022-08-01T10:06:59.372Z,22.70
2022-08-01T10:09:05.080Z,22.80
2022-08-01T10:11:12.250Z,22.80
2022-08-01T10:13:16.021Z,22.60
2022-08-01T10:15:21.021Z,22.30
2022-08-01T10:17:26.347Z,22.10
2022-08-01T10:19:32.886Z,21.90
2022-08-01T10:21:56.882Z,21.90
2022-08-01T10:23:46.090Z,22.10
2022-08-01T10:25:51.968Z,22.40
2022-08-01T10:28:00.158Z,22.70
2022-08-01T10:30:19.591Z,22.70
2022-08-01T10:32:13.580Z,22.80
2022-08-01T10:34:19.028Z,22.80
2022-08-01T10:36:25.973Z,23.00
2022-08-01T10:38:30.146Z,23.00
2022-08-01T10:42:54.697Z,22.80
2022-08-01T10:44:59.464Z,22.50
2022-08-01T10:47:10.011Z,22.10
2022-08-01T10:49:16.410Z,21.80
2022-08-01T10:51:21.816Z,21.70
2022-08-01T10:53:42.442Z,21.50
2022-08-01T10:55:46.817Z,21.70
2022-08-01T10:57:52.721Z,22.00
2022-08-01T11:00:00.960Z,22.40
2022-08-01T11:02:04.820Z,22.60
2022-08-01T11:04:15.964Z,22.60
2022-08-01T11:08:38.582Z,22.20
2022-08-01T11:10:44.500Z,22.20
2022-08-01T11:12:48.925Z,22.40
2022-08-01T11:15:29.558Z,22.40
2022-08-01T11:17:37.492Z,22.50
2022-08-01T11:20:09.049Z,22.50
2022-08-01T11:22:12.611Z,22.50
2022-08-01T11:24:46.215Z,22.60
2022-08-01T11:27:17.324Z,22.80
2022-08-01T11:29:22.949Z,22.80
2022-08-01T11:33:52.146Z,22.80
2022-08-01T11:36:37.008Z,22.90
2022-08-01T11:38:28.762Z,22.90
2022-08-01T11:40:32.385Z,22.60
2022-08-01T11:42:36.717Z,22.50
2022-08-01T11:44:51.177Z,22.40
2022-08-01T11:46:57.357Z,22.40
2022-08-01T11:49:38.785Z,22.20
2022-08-01T11:51:42.816Z,22.10
2022-08-01T11:53:50.159Z,22.30
2022-08-01T11:55:55.848Z,22.50
2022-08-01T11:58:03.719Z,22.70
2022-08-01T12:00:15.279Z,22.70
2022-08-01T12:02:30.520Z,22.60
2022-08-01T12:04:45.628Z,22.70
2022-08-01T12:06:49.225Z,22.60
2022-08-01T12:08:54.644Z,22.50
2022-08-01T12:11:02.502Z,22.50
2022-08-01T12:13:07.160Z,22.50
2022-08-01T12:15:12.870Z,22.60
2022-08-01T12:17:16.513Z,22.60
2022-08-01T12:19:51.993Z,22.40
2022-08-01T12:22:14.328Z,22.60
2022-08-01T12:24:24.211Z,22.70
2022-08-01T12:26:41.380Z,23.00
2022-08-01T12:28:45.109Z,22.90
2022-08-01T12:30:50.097Z,22.90
2022-08-01T12:32:54.598Z,22.90
2022-08-01T12:35:00.699Z,22.90
2022-08-01T12:37:04.514Z,23.00
2022-08-01T12:39:08.812Z,23.10
2022-08-01T12:41:24.438Z,23.20
2022-08-01T12:43:32.017Z,23.20
2022-08-01T12:45:38.034Z,23.40
2022-08-01T12:47:42.513Z,23.50
2022-08-01T12:49:46.939Z,23.50
2022-08-01T12:54:10.605Z,23.20
2022-08-01T12:56:15.039Z,23.30
2022-08-01T12:58:19.456Z,23.40
2022-08-01T13:00:25.231Z,23.40
2022-08-01T13:02:34.175Z,23.30
2022-08-01T13:04:51.901Z,23.40
2022-08-01T13:06:55.497Z,23.50
2022-08-01T13:09:07.094Z,23.60
2022-08-01T13:11:14.430Z,23.70
2022-08-01T13:13:28.436Z,23.70
2022-08-01T13:15:32.309Z,23.80
2022-08-01T13:17:38.537Z,23.90
2022-08-01T13:19:47.461Z,23.90
2022-08-01T13:21:58.515Z,24.10
2022-08-01T13:24:04.385Z,24.00
2022-08-01T13:26:08.419Z,24.20
2022-08-01T13:28:20.020Z,24.20
2022-08-01T13:30:25.017Z,24.20
2022-08-01T13:32:31.671Z,24.30
2022-08-01T13:34:36.311Z,24.30
2022-08-01T13:36:44.199Z,24.30
2022-08-01T13:39:04.356Z,23.90
2022-08-01T13:41:07.960Z,23.90
2022-08-01T13:43:11.451Z,23.70
2022-08-01T13:45:15.284Z,23.70
2022-08-01T13:47:18.839Z,23.60
2022-08-01T13:49:24.420Z,23.50
2022-08-01T13:51:28.032Z,23.40
2022-08-01T13:53:32.077Z,23.20
2022-08-01T13:55:35.768Z,23.00
2022-08-01T13:57:39.609Z,23.10
2022-08-01T13:59:43.321Z,23.10
2022-08-01T14:01:47.349Z,23.10
2022-08-01T14:03:51.759Z,23.00
2022-08-01T14:08:20.182Z,23.20
2022-08-01T14:10:24.173Z,23.30
2022-08-01T14:12:27.813Z,23.20
2022-08-01T14:14:31.521Z,23.30
2022-08-01T14:16:35.128Z,23.40
2022-08-01T14:18:39.984Z,23.50
2022-08-01T14:20:43.864Z,23.70
2022-08-01T14:22:47.591Z,23.90
2022-08-01T14:24:51.249Z,23.90
2022-08-01T14:26:56.623Z,23.90
2022-08-01T14:29:00.213Z,23.80
2022-08-01T14:31:03.853Z,24.00
2022-08-01T14:33:07.462Z,23.80
2022-08-01T14:35:11.344Z,23.80
2022-08-01T14:37:14.906Z,23.80
2022-08-01T14:39:18.895Z,23.60
2022-08-01T14:41:22.581Z,23.60
2022-08-01T14:43:32.273Z,23.60
2022-08-01T14:45:33.108Z,23.60
2022-08-01T14:47:37.147Z,23.90
2022-08-01T14:49:45.702Z,24.00
2022-08-01T14:51:46.215Z,23.90
2022-08-01T14:53:50.813Z,23.80
2022-08-01T14:55:55.300Z,23.90
2022-08-01T14:57:58.901Z,24.10
2022-08-01T15:00:04.884Z,24.20
2022-08-01T15:02:10.352Z,24.40
2022-08-01T15:04:13.877Z,24.70
2022-08-01T15:06:17.967Z,24.70
2022-08-01T15:08:21.516Z,24.30
2022-08-01T15:10:25.125Z,24.10
2022-08-01T15:12:44.500Z,24.10
2022-08-01T15:14:49.185Z,23.80
2022-08-01T15:16:54.343Z,23.60
2022-08-01T15:18:57.901Z,23.60
2022-08-01T15:21:01.509Z,23.70
2022-08-01T15:23:05.075Z,23.80
2022-08-01T15:25:09.159Z,24.10
2022-08-01T15:27:12.755Z,24.30
2022-08-01T15:29:16.401Z,24.50
2022-08-01T15:31:20.023Z,24.60
2022-08-01T15:33:23.802Z,24.70
2022-08-01T15:35:27.408Z,24.70
2022-08-01T15:37:30.976Z,25.00
2022-08-01T15:39:35.689Z,25.00
2022-08-01T15:41:39.306Z,25.20
2022-08-01T15:43:44.268Z,25.20
2022-08-01T15:45:49.065Z,25.00
2022-08-01T15:47:52.718Z,24.70
2022-08-01T15:49:58.382Z,24.30
2022-08-01T15:52:01.921Z,23.80
2022-08-01T15:54:08.363Z,23.50
2022-08-01T15:56:12.056Z,23.40
2022-08-01T15:58:15.632Z,23.30
2022-08-01T16:00:19.378Z,23.30
2022-08-01T16:02:23.000Z,23.20
2022-08-01T16:04:30.087Z,23.20
2022-08-01T16:06:33.496Z,23.10
2022-08-01T16:08:37.223Z,23.00
2022-08-01T16:10:40.818Z,23.00
2022-08-01T16:12:44.368Z,23.00
2022-08-01T16:14:48.245Z,23.10
2022-08-01T16:16:51.711Z,23.20
2022-08-01T16:18:55.303Z,23.40
2022-08-01T16:20:58.925Z,23.30
2022-08-01T16:23:02.710Z,23.40
2022-08-01T16:25:07.351Z,23.30
2022-08-01T16:27:10.979Z,23.20
2022-08-01T16:29:14.779Z,23.10
2022-08-01T16:31:26.044Z,23.00
2022-08-01T16:35:39.632Z,22.90
2022-08-01T16:37:45.013Z,23.00
2022-08-01T16:39:48.620Z,23.10
2022-08-01T16:41:55.361Z,23.40
2022-08-01T16:43:57.774Z,23.70
2022-08-01T16:46:01.887Z,23.70
2022-08-01T16:48:06.293Z,24.00
2022-08-01T16:50:10.019Z,24.20
2022-08-01T16:52:13.525Z,24.20
2022-08-01T16:54:25.062Z,24.10
2022-08-01T16:56:22.472Z,24.10
2022-08-01T16:58:27.261Z,24.00
2022-08-01T17:00:31.419Z,23.80
2022-08-01T17:02:35.269Z,23.70
2022-08-01T17:04:38.996Z,23.60
2022-08-01T17:06:42.490Z,23.50
2022-08-01T17:08:47.292Z,23.40
2022-08-01T17:10:51.520Z,23.20
2022-08-01T17:12:55.009Z,23.10
2022-08-01T17:14:58.488Z,23.10
2022-08-01T17:17:02.079Z,23.00
2022-08-01T17:19:05.736Z,22.90
2022-08-01T17:21:09.456Z,23.00
2022-08-01T17:23:13.033Z,23.10
2022-08-01T17:25:17.324Z,23.20
2022-08-01T17:27:20.910Z,23.40
2022-08-01T17:29:24.488Z,23.60
2022-08-01T17:31:28.184Z,23.70
2022-08-01T17:33:45.421Z,23.70
2022-08-01T17:35:37.207Z,23.70
2022-08-01T17:37:40.785Z,23.60
2022-08-01T17:42:01.610Z,23.50
2022-08-01T17:44:05.721Z,23.40
2022-08-01T17:46:09.330Z,23.30
2022-08-01T17:48:16.058Z,23.10
2022-08-01T17:50:19.648Z,23.10
2022-08-01T17:52:26.009Z,23.00
2022-08-01T17:54:29.925Z,22.90
2022-08-01T17:56:38.103Z,22.80
2022-08-01T17:58:51.763Z,22.80
2022-08-01T18:02:58.373Z,22.60
2022-08-01T18:05:04.636Z,22.50
2022-08-01T18:07:08.633Z,22.60
2022-08-01T18:09:12.816Z,22.50
2022-08-01T18:11:16.952Z,22.50
2022-08-01T18:13:20.605Z,22.50
2022-08-01T18:15:26.809Z,22.60
2022-08-01T18:17:30.062Z,22.80
2022-08-01T18:19:33.632Z,22.70
2022-08-01T18:21:41.064Z,22.70
2022-08-01T18:23:51.022Z,22.60
2022-08-01T18:28:30.640Z,22.40
2022-08-01T18:30:11.172Z,22.30
2022-08-01T18:32:14.882Z,22.20
2022-08-01T18:34:18.424Z,22.10
2022-08-01T18:36:31.645Z,22.00
2022-08-01T18:38:27.411Z,22.00
2022-08-01T18:40:31.013Z,22.00
2022-08-01T18:42:34.600Z,22.00
2022-08-01T18:44:41.700Z,21.90
2022-08-01T18:46:46.523Z,21.90
2022-08-01T18:48:50.185Z,21.80
2022-08-01T18:50:53.941Z,21.70
2022-08-01T18:52:58.660Z,21.60
2022-08-01T18:55:02.255Z,21.50
2022-08-01T18:57:05.969Z,21.40
2022-08-01T18:59:09.923Z,21.30
2022-08-01T19:01:13.834Z,21.30
2022-08-01T19:03:19.172Z,21.20
2022-08-01T19:05:22.948Z,21.10
2022-08-01T19:07:46.233Z,21.10
2022-08-01T19:09:32.424Z,21.00
2022-08-01T19:11:36.523Z,20.90
2022-08-01T19:13:40.128Z,21.00
2022-08-01T19:15:44.108Z,20.80
2022-08-01T19:17:48.154Z,20.80
2022-08-01T19:19:55.243Z,20.70
2022-08-01T19:21:58.884Z,20.60
2022-08-01T19:24:23.680Z,20.50
2022-08-01T19:26:25.684Z,20.50
2022-08-01T19:28:31.771Z,20.50
2022-08-01T19:32:54.490Z,20.30
2022-08-01T19:35:02.146Z,20.30
2022-08-01T19:37:06.757Z,20.20
2022-08-01T19:39:10.458Z,20.20
2022-08-01T19:43:29.546Z,20.10
2022-08-01T19:45:34.264Z,20.00
2022-08-01T19:47:51.984Z,20.00
2022-08-01T19:49:43.534Z,20.00
2022-08-01T19:51:50.579Z,20.00
2022-08-01T19:53:55.619Z,19.90
2022-08-01T19:56:00.760Z,19.90
2022-08-01T20:00:24.058Z,19.80
2022-08-01T20:02:26.144Z,19.80
2022-08-01T20:04:30.029Z,19.80
2022-08-01T20:06:34.778Z,19.80
2022-08-01T20:08:38.686Z,19.80
2022-08-01T20:10:42.268Z,19.70
2022-08-01T20:12:46.149Z,19.70
2022-08-01T20:14:53.128Z,19.60
2022-08-01T20:16:56.973Z,19.60
2022-08-01T20:19:03.508Z,19.50
2022-08-01T20:21:09.017Z,19.60
2022-08-01T20:23:18.096Z,19.50
2022-08-01T20:25:22.471Z,19.40
2022-08-01T20:27:28.776Z,19.20
2022-08-01T20:29:32.772Z,19.10
2022-08-01T20:31:44.089Z,19.00
2022-08-01T20:33:48.260Z,19.00
2022-08-01T20:35:54.093Z,18.90
2022-08-01T20:38:06.697Z,18.90
2022-08-01T20:40:05.321Z,18.90
2022-08-01T20:42:09.004Z,18.90
2022-08-01T20:44:12.776Z,18.80
2022-08-01T20:46:16.797Z,18.90
2022-08-01T20:48:20.469Z,18.80
2022-08-01T20:50:53.357Z,18.80
2022-08-01T20:52:48.593Z,18.90
2022-08-01T20:54:52.068Z,18.80
2022-08-01T20:56:59.388Z,18.70
2022-08-01T20:59:09.282Z,18.70
2022-08-01T21:01:16.607Z,18.70
2022-08-01T21:03:23.401Z,18.60
2022-08-01T21:05:30.666Z,18.60
2022-08-01T21:07:36.678Z,18.60
2022-08-01T21:09:42.199Z,18.60
2022-08-01T21:11:49.223Z,18.60
2022-08-01T21:13:53.538Z,18.60
2022-08-01T21:16:07.525Z,18.60
2022-08-01T21:18:08.941Z,18.50
2022-08-01T21:20:14.303Z,18.60
2022-08-01T21:22:27.256Z,18.50
2022-08-01T21:24:29.894Z,18.50
2022-08-01T21:26:36.151Z,18.50
2022-08-01T21:28:41.210Z,18.60
2022-08-01T21:30:53.859Z,18.60
2022-08-01T21:32:56.081Z,18.50
2022-08-01T21:35:00.451Z,18.50
2022-08-01T21:37:06.798Z,18.50
2022-08-01T21:39:10.858Z,18.40
2022-08-01T21:41:16.132Z,18.30
2022-08-01T21:43:20.022Z,18.30
2022-08-01T21:45:25.410Z,18.20
2022-08-01T21:47:29.817Z,18.20
2022-08-01T21:49:33.503Z,18.20
2022-08-01T21:51:41.364Z,18.10
2022-08-01T21:56:15.086Z,17.90
2022-08-01T21:58:22.005Z,17.80
2022-08-01T22:00:26.453Z,17.80
2022-08-01T22:02:35.814Z,17.60
2022-08-01T22:04:42.360Z,17.70
2022-08-01T22:09:05.654Z,17.60
2022-08-01T22:11:11.375Z,17.50
2022-08-01T22:13:14.940Z,17.40
2022-08-01T22:15:20.501Z,17.40
2022-08-01T22:17:24.981Z,17.30
2022-08-01T22:19:43.858Z,17.10
2022-08-01T22:21:35.120Z,17.10
2022-08-01T22:25:56.523Z,17.00
2022-08-01T22:28:05.487Z,17.00
2022-08-01T22:30:09.728Z,17.00
2022-08-01T22:32:17.600Z,17.00
2022-08-01T22:34:22.712Z,16.80
2022-08-01T22:36:29.862Z,16.70
2022-08-01T22:38:34.279Z,16.70
2022-08-01T22:42:59.793Z,16.60
2022-08-01T22:45:07.804Z,16.60
2022-08-01T22:47:15.065Z,16.60
2022-08-01T22:49:23.380Z,16.60
2022-08-01T22:51:40.517Z,16.50
2022-08-01T22:53:47.763Z,16.50
2022-08-01T22:55:58.805Z,16.50
2022-08-01T22:58:00.835Z,16.50
2022-08-01T23:00:08.285Z,16.40
2022-08-01T23:02:15.364Z,16.40
2022-08-01T23:04:33.184Z,16.40
2022-08-01T23:06:37.523Z,16.30
2022-08-01T23:08:42.052Z,16.30
2022-08-01T23:10:46.654Z,16.30
2022-08-01T23:12:51.026Z,16.20
2022-08-01T23:14:56.083Z,16.10
2022-08-01T23:17:02.915Z,16.10
2022-08-01T23:21:49.180Z,16.10
2022-08-01T23:23:54.736Z,16.10
2022-08-01T23:25:59.364Z,16.10
2022-08-01T23:28:06.168Z,16.10
2022-08-01T23:30:11.613Z,16.10
2022-08-01T23:32:15.899Z,16.10
2022-08-01T23:34:20.240Z,16.00
2022-08-01T23:36:23.943Z,16.00
2022-08-01T23:38:27.640Z,16.10
2022-08-01T23:40:31.998Z,16.00
2022-08-01T23:42:35.599Z,16.10
2022-08-01T23:44:39.347Z,16.10
2022-08-01T23:46:42.945Z,16.10
2022-08-01T23:48:46.549Z,16.10
2022-08-01T23:50:50.237Z,16.10
2022-08-01T23:52:54.531Z,16.10
2022-08-01T23:54:59.749Z,16.00
2022-08-01T23:57:05.346Z,16.00
2022-08-01T23:59:12.485Z,16.00
